sensor_id;sensor_type;location;lat;lon;timestamp;pressure;altitude;pressure_sealevel;temperature;humidity
59170;BME280;52474;52.236;5.114;2023-03-23T00:00:07;100155.34;;;10.90;100.00
59170;BME280;52474;52.236;5.114;2023-03-23T00:02:36;100158.53;;;10.93;100.00
59170;BME280;52474;52.236;5.114;2023-03-23T00:05:06;100177.63;;;10.97;100.00
59170;BME280;52474;52.236;5.114;2023-03-23T00:07:35;100136.44;;;10.85;100.00
59170;BME280;52474;52.236;5.114;2023-03-23T00:10:01;100174.28;;;10.95;100.00
59170;BME280;52474;52.236;5.114;2023-03-23T00:12:30;100129.41;;;10.76;100.00
59170;BME280;52474;52.236;5.114;2023-03-23T00:15:00;100179.13;;;11.00;100.00
59170;BME280;52474;52.236;5.114;2023-03-23T00:17:28;100164.47;;;11.05;100.00
59170;BME280;52474;52.236;5.114;2023-03-23T00:19:53;100162.66;;;11.06;100.00
59170;BME280;52474;52.236;5.114;2023-03-23T00:22:19;100165.06;;;10.99;100.00
59170;BME280;52474;52.236;5.114;2023-03-23T00:24:47;100159.91;;;10.98;100.00
59170;BME280;52474;52.236;5.114;2023-03-23T00:27:16;100160.06;;;10.96;100.00
59170;BME280;52474;52.236;5.114;2023-03-23T00:29:42;100158.38;;;10.95;100.00
59170;BME280;52474;52.236;5.114;2023-03-23T00:32:11;100147.41;;;10.90;100.00
59170;BME280;52474;52.236;5.114;2023-03-23T00:34:39;100138.25;;;10.84;100.00
59170;BME280;52474;52.236;5.114;2023-03-23T00:37:06;100143.94;;;10.89;100.00
59170;BME280;52474;52.236;5.114;2023-03-23T00:39:33;100131.81;;;10.87;100.00
59170;BME280;52474;52.236;5.114;2023-03-23T00:42:02;100133.72;;;10.94;100.00
59170;BME280;52474;52.236;5.114;2023-03-23T00:44:30;100133.88;;;10.93;100.00
59170;BME280;52474;52.236;5.114;2023-03-23T00:46:57;100148.34;;;10.99;100.00
59170;BME280;52474;52.236;5.114;2023-03-23T00:49:25;100137.19;;;10.95;100.00
59170;BME280;52474;52.236;5.114;2023-03-23T00:51:52;100128.72;;;10.91;100.00
59170;BME280;52474;52.236;5.114;2023-03-23T00:54:18;100131.22;;;10.93;100.00
59170;BME280;52474;52.236;5.114;2023-03-23T00:56:45;100123.81;;;10.96;100.00
59170;BME280;52474;52.236;5.114;2023-03-23T00:59:11;100124.09;;;10.93;100.00
59170;BME280;52474;52.236;5.114;2023-03-23T01:01:36;100124.78;;;10.95;100.00
59170;BME280;52474;52.236;5.114;2023-03-23T01:04:03;100121.53;;;11.02;100.00
59170;BME280;52474;52.236;5.114;2023-03-23T01:06:33;100101.41;;;10.91;100.00
59170;BME280;52474;52.236;5.114;2023-03-23T01:09:07;100127.00;;;11.00;100.00
59170;BME280;52474;52.236;5.114;2023-03-23T01:11:34;100103.22;;;10.90;100.00
59170;BME280;52474;52.236;5.114;2023-03-23T01:14:00;100128.72;;;10.91;100.00
59170;BME280;52474;52.236;5.114;2023-03-23T01:16:27;100111.91;;;10.83;100.00
59170;BME280;52474;52.236;5.114;2023-03-23T01:18:53;100116.16;;;10.93;100.00
59170;BME280;52474;52.236;5.114;2023-03-23T01:21:20;100120.47;;;10.94;100.00
59170;BME280;52474;52.236;5.114;2023-03-23T01:23:46;100107.38;;;10.93;100.00
59170;BME280;52474;52.236;5.114;2023-03-23T01:26:18;100116.84;;;10.95;100.00
59170;BME280;52474;52.236;5.114;2023-03-23T01:28:44;100087.25;;;11.00;100.00
59170;BME280;52474;52.236;5.114;2023-03-23T01:31:15;100099.28;;;10.94;100.00
59170;BME280;52474;52.236;5.114;2023-03-23T01:33:42;100078.38;;;10.91;100.00
59170;BME280;52474;52.236;5.114;2023-03-23T01:36:14;100082.78;;;11.01;100.00
59170;BME280;52474;52.236;5.114;2023-03-23T01:38:44;100083.06;;;10.98;100.00
59170;BME280;52474;52.236;5.114;2023-03-23T01:41:11;100093.00;;;10.95;100.00
59170;BME280;52474;52.236;5.114;2023-03-23T01:45:07;100083.16;;;11.06;100.00
59170;BME280;52474;52.236;5.114;2023-03-23T01:47:00;100080.13;;;11.01;100.00
59170;BME280;52474;52.236;5.114;2023-03-23T01:49:32;100065.66;;;10.95;100.00
59170;BME280;52474;52.236;5.114;2023-03-23T01:52:03;100087.25;;;11.00;100.00
59170;BME280;52474;52.236;5.114;2023-03-23T01:54:31;100083.75;;;11.00;100.00
59170;BME280;52474;52.236;5.114;2023-03-23T01:57:04;100075.66;;;11.01;100.00
59170;BME280;52474;52.236;5.114;2023-03-23T01:59:33;100053.34;;;10.86;100.00
59170;BME280;52474;52.236;5.114;2023-03-23T02:02:16;100060.75;;;11.00;100.00
59170;BME280;52474;52.236;5.114;2023-03-23T02:04:43;100064.22;;;11.01;100.00
59170;BME280;52474;52.236;5.114;2023-03-23T02:07:11;100058.09;;;11.00;100.00
59170;BME280;52474;52.236;5.114;2023-03-23T02:09:38;100055.88;;;11.13;100.00
59170;BME280;52474;52.236;5.114;2023-03-23T02:12:04;100043.41;;;11.06;100.00
59170;BME280;52474;52.236;5.114;2023-03-23T02:14:34;100057.53;;;11.14;100.00
59170;BME280;52474;52.236;5.114;2023-03-23T02:28:31;100060.34;;;11.13;100.00
59170;BME280;52474;52.236;5.114;2023-03-23T02:31:14;100070.50;;;11.17;100.00
59170;BME280;52474;52.236;5.114;2023-03-23T02:39:10;100054.97;;;11.05;100.00
59170;BME280;52474;52.236;5.114;2023-03-23T02:41:52;100060.50;;;11.11;100.00
59170;BME280;52474;52.236;5.114;2023-03-23T02:44:22;100073.06;;;11.09;100.00
59170;BME280;52474;52.236;5.114;2023-03-23T02:46:48;100071.63;;;11.15;100.00
59170;BME280;52474;52.236;5.114;2023-03-23T02:49:17;100065.94;;;11.10;100.00
59170;BME280;52474;52.236;5.114;2023-03-23T02:51:44;100065.41;;;11.24;100.00
59170;BME280;52474;52.236;5.114;2023-03-23T02:54:13;100057.44;;;11.24;100.00
59170;BME280;52474;52.236;5.114;2023-03-23T02:56:40;100042.69;;;11.22;100.00
59170;BME280;52474;52.236;5.114;2023-03-23T02:59:15;100044.97;;;11.16;100.00
59170;BME280;52474;52.236;5.114;2023-03-23T03:04:11;100053.13;;;11.23;100.00
59170;BME280;52474;52.236;5.114;2023-03-23T03:06:51;100055.47;;;11.26;100.00
59170;BME280;52474;52.236;5.114;2023-03-23T03:09:40;100059.31;;;11.32;100.00
59170;BME280;52474;52.236;5.114;2023-03-23T03:12:15;100047.53;;;11.26;100.00
59170;BME280;52474;52.236;5.114;2023-03-23T03:14:56;100044.72;;;11.28;100.00
59170;BME280;52474;52.236;5.114;2023-03-23T03:17:25;100048.53;;;11.25;100.00
59170;BME280;52474;52.236;5.114;2023-03-23T03:20:02;100044.13;;;11.16;100.00
59170;BME280;52474;52.236;5.114;2023-03-23T03:22:41;100043.03;;;11.27;100.00
59170;BME280;52474;52.236;5.114;2023-03-23T03:25:11;100026.94;;;11.20;100.00
59170;BME280;52474;52.236;5.114;2023-03-23T03:27:44;100019.19;;;11.27;100.00
59170;BME280;52474;52.236;5.114;2023-03-23T03:30:21;100031.03;;;11.14;100.00
59170;BME280;52474;52.236;5.114;2023-03-23T03:32:51;100035.06;;;11.18;100.00
59170;BME280;52474;52.236;5.114;2023-03-23T03:35:20;100039.06;;;11.23;100.00
59170;BME280;52474;52.236;5.114;2023-03-23T03:37:46;100036.09;;;11.26;100.00
59170;BME280;52474;52.236;5.114;2023-03-23T03:40:19;100025.59;;;11.16;100.00
59170;BME280;52474;52.236;5.114;2023-03-23T03:42:45;100029.75;;;11.18;100.00
59170;BME280;52474;52.236;5.114;2023-03-23T03:45:15;100039.66;;;11.16;100.00
59170;BME280;52474;52.236;5.114;2023-03-23T03:47:44;100059.03;;;11.17;100.00
59170;BME280;52474;52.236;5.114;2023-03-23T03:50:10;100079.97;;;10.84;100.00
59170;BME280;52474;52.236;5.114;2023-03-23T03:52:38;100053.31;;;10.50;100.00
59170;BME280;52474;52.236;5.114;2023-03-23T03:55:09;100091.91;;;10.52;100.00
59170;BME280;52474;52.236;5.114;2023-03-23T03:57:38;100084.41;;;10.48;100.00
59170;BME280;52474;52.236;5.114;2023-03-23T04:00:08;100073.34;;;10.35;100.00
59170;BME280;52474;52.236;5.114;2023-03-23T04:02:43;100080.59;;;10.32;100.00
59170;BME280;52474;52.236;5.114;2023-03-23T04:05:11;100084.53;;;10.19;100.00
59170;BME280;52474;52.236;5.114;2023-03-23T04:07:38;100098.19;;;10.24;100.00
59170;BME280;52474;52.236;5.114;2023-03-23T04:10:06;100097.31;;;10.23;100.00
59170;BME280;52474;52.236;5.114;2023-03-23T04:12:35;100095.53;;;10.24;100.00
59170;BME280;52474;52.236;5.114;2023-03-23T04:15:20;100104.56;;;10.21;100.00
59170;BME280;52474;52.236;5.114;2023-03-23T04:17:47;100099.00;;;10.24;100.00
59170;BME280;52474;52.236;5.114;2023-03-23T04:20:13;100079.97;;;10.11;100.00
59170;BME280;52474;52.236;5.114;2023-03-23T04:22:47;100082.63;;;10.11;100.00
59170;BME280;52474;52.236;5.114;2023-03-23T04:25:19;100090.44;;;10.13;100.00
59170;BME280;52474;52.236;5.114;2023-03-23T04:27:51;100092.50;;;10.09;100.00
59170;BME280;52474;52.236;5.114;2023-03-23T04:30:25;100091.69;;;10.08;100.00
59170;BME280;52474;52.236;5.114;2023-03-23T04:33:06;100102.28;;;10.08;100.00
59170;BME280;52474;52.236;5.114;2023-03-23T04:35:32;100092.03;;;9.96;100.00
59170;BME280;52474;52.236;5.114;2023-03-23T04:38:24;100088.13;;;10.00;100.00
59170;BME280;52474;52.236;5.114;2023-03-23T04:40:56;100097.31;;;9.96;100.00
59170;BME280;52474;52.236;5.114;2023-03-23T04:43:38;100094.25;;;10.00;100.00
59170;BME280;52474;52.236;5.114;2023-03-23T04:46:26;100069.38;;;9.83;100.00
59170;BME280;52474;52.236;5.114;2023-03-23T04:48:54;100104.47;;;10.13;100.00
59170;BME280;52474;52.236;5.114;2023-03-23T04:51:26;100100.44;;;10.09;100.00
59170;BME280;52474;52.236;5.114;2023-03-23T04:53:54;100147.66;;;10.14;100.00
59170;BME280;52474;52.236;5.114;2023-03-23T04:56:22;100141.00;;;10.09;100.00
59170;BME280;52474;52.236;5.114;2023-03-23T04:58:50;100140.31;;;10.07;100.00
59170;BME280;52474;52.236;5.114;2023-03-23T05:01:32;100124.59;;;9.96;100.00
59170;BME280;52474;52.236;5.114;2023-03-23T05:04:28;100143.38;;;10.03;100.00
59170;BME280;52474;52.236;5.114;2023-03-23T05:07:16;100141.38;;;10.15;100.00
59170;BME280;52474;52.236;5.114;2023-03-23T05:09:49;100130.59;;;10.26;100.00
59170;BME280;52474;52.236;5.114;2023-03-23T05:12:19;100125.91;;;10.29;100.00
59170;BME280;52474;52.236;5.114;2023-03-23T05:14:55;100120.88;;;10.26;100.00
59170;BME280;52474;52.236;5.114;2023-03-23T05:17:25;100130.38;;;10.29;100.00
59170;BME280;52474;52.236;5.114;2023-03-23T05:19:54;100122.25;;;10.30;100.00
59170;BME280;52474;52.236;5.114;2023-03-23T05:22:41;100133.78;;;10.39;100.00
59170;BME280;52474;52.236;5.114;2023-03-23T05:25:09;100120.88;;;10.26;100.00
59170;BME280;52474;52.236;5.114;2023-03-23T05:27:40;100133.84;;;10.29;100.00
59170;BME280;52474;52.236;5.114;2023-03-23T05:30:21;100150.94;;;10.35;100.00
59170;BME280;52474;52.236;5.114;2023-03-23T05:32:48;100145.63;;;10.35;100.00
59170;BME280;52474;52.236;5.114;2023-03-23T05:35:31;100143.59;;;10.29;100.00
59170;BME280;52474;52.236;5.114;2023-03-23T05:37:57;100135.78;;;10.18;100.00
59170;BME280;52474;52.236;5.114;2023-03-23T05:40:24;100159.03;;;10.24;100.00
59170;BME280;52474;52.236;5.114;2023-03-23T05:42:58;100166.59;;;10.09;100.00
59170;BME280;52474;52.236;5.114;2023-03-23T05:45:43;100170.38;;;9.97;100.00
59170;BME280;52474;52.236;5.114;2023-03-23T05:48:12;100168.88;;;9.94;100.00
59170;BME280;52474;52.236;5.114;2023-03-23T05:50:38;100162.94;;;9.82;100.00
59170;BME280;52474;52.236;5.114;2023-03-23T05:53:04;100184.34;;;9.79;100.00
59170;BME280;52474;52.236;5.114;2023-03-23T05:55:33;100169.19;;;9.72;100.00
59170;BME280;52474;52.236;5.114;2023-03-23T05:58:15;100165.19;;;9.77;100.00
59170;BME280;52474;52.236;5.114;2023-03-23T06:00:43;100175.59;;;9.79;100.00
59170;BME280;52474;52.236;5.114;2023-03-23T06:03:19;100167.66;;;9.79;100.00
59170;BME280;52474;52.236;5.114;2023-03-23T06:06:10;100175.47;;;9.80;100.00
59170;BME280;52474;52.236;5.114;2023-03-23T06:08:51;100172.97;;;9.69;100.00
59170;BME280;52474;52.236;5.114;2023-03-23T06:11:25;100176.88;;;9.65;100.00
59170;BME280;52474;52.236;5.114;2023-03-23T06:14:09;100209.97;;;9.79;100.00
59170;BME280;52474;52.236;5.114;2023-03-23T06:16:35;100181.31;;;9.74;100.00
59170;BME280;52474;52.236;5.114;2023-03-23T06:19:07;100204.38;;;9.82;100.00
59170;BME280;52474;52.236;5.114;2023-03-23T06:21:36;100199.81;;;9.84;100.00
59170;BME280;52474;52.236;5.114;2023-03-23T06:24:12;100202.59;;;9.82;100.00
59170;BME280;52474;52.236;5.114;2023-03-23T06:26:39;100210.13;;;9.87;100.00
59170;BME280;52474;52.236;5.114;2023-03-23T06:29:16;100219.56;;;9.89;100.00
59170;BME280;52474;52.236;5.114;2023-03-23T06:31:48;100220.41;;;9.90;100.00
59170;BME280;52474;52.236;5.114;2023-03-23T06:34:16;100217.59;;;9.92;100.00
59170;BME280;52474;52.236;5.114;2023-03-23T06:37:11;100226.63;;;9.99;100.00
59170;BME280;52474;52.236;5.114;2023-03-23T06:39:47;100234.03;;;10.05;100.00
59170;BME280;52474;52.236;5.114;2023-03-23T06:42:22;100228.31;;;10.09;100.00
59170;BME280;52474;52.236;5.114;2023-03-23T06:45:01;100229.81;;;10.12;100.00
59170;BME280;52474;52.236;5.114;2023-03-23T06:47:28;100224.78;;;10.19;100.00
59170;BME280;52474;52.236;5.114;2023-03-23T06:49:59;100229.50;;;10.25;100.00
59170;BME280;52474;52.236;5.114;2023-03-23T06:52:27;100235.38;;;10.28;100.00
59170;BME280;52474;52.236;5.114;2023-03-23T06:54:53;100232.97;;;10.25;100.00
59170;BME280;52474;52.236;5.114;2023-03-23T06:57:20;100226.59;;;10.28;100.00
59170;BME280;52474;52.236;5.114;2023-03-23T06:59:48;100222.53;;;10.34;100.00
59170;BME280;52474;52.236;5.114;2023-03-23T07:02:14;100235.47;;;10.46;100.00
59170;BME280;52474;52.236;5.114;2023-03-23T07:04:42;100230.69;;;10.50;100.00
59170;BME280;52474;52.236;5.114;2023-03-23T07:07:18;100225.78;;;10.55;100.00
59170;BME280;52474;52.236;5.114;2023-03-23T07:09:50;100234.81;;;10.62;100.00
59170;BME280;52474;52.236;5.114;2023-03-23T07:12:20;100228.31;;;10.57;100.00
59170;BME280;52474;52.236;5.114;2023-03-23T07:14:48;100217.19;;;10.43;100.00
59170;BME280;52474;52.236;5.114;2023-03-23T07:17:14;100210.78;;;10.46;100.00
59170;BME280;52474;52.236;5.114;2023-03-23T07:19:54;100232.31;;;10.61;100.00
59170;BME280;52474;52.236;5.114;2023-03-23T07:22:20;100214.78;;;10.60;100.00
59170;BME280;52474;52.236;5.114;2023-03-23T07:24:53;100229.06;;;10.77;100.00
59170;BME280;52474;52.236;5.114;2023-03-23T07:27:26;100233.25;;;10.69;100.00
59170;BME280;52474;52.236;5.114;2023-03-23T07:33:20;100241.59;;;10.47;100.00
59170;BME280;52474;52.236;5.114;2023-03-23T07:35:48;100233.38;;;10.40;100.00
59170;BME280;52474;52.236;5.114;2023-03-23T07:38:19;100248.31;;;10.41;100.00
59170;BME280;52474;52.236;5.114;2023-03-23T07:40:48;100249.13;;;10.42;100.00
59170;BME280;52474;52.236;5.114;2023-03-23T07:43:16;100237.13;;;10.47;100.00
59170;BME280;52474;52.236;5.114;2023-03-23T07:45:58;100246.75;;;10.76;100.00
59170;BME280;52474;52.236;5.114;2023-03-23T07:48:35;100257.00;;;10.89;100.00
59170;BME280;52474;52.236;5.114;2023-03-23T07:51:07;100238.59;;;10.87;100.00
59170;BME280;52474;52.236;5.114;2023-03-23T07:53:34;100250.72;;;10.90;100.00
59170;BME280;52474;52.236;5.114;2023-03-23T07:56:21;100254.88;;;10.92;100.00
59170;BME280;52474;52.236;5.114;2023-03-23T07:59:09;100240.78;;;10.74;100.00
59170;BME280;52474;52.236;5.114;2023-03-23T08:01:38;100238.44;;;10.71;100.00
59170;BME280;52474;52.236;5.114;2023-03-23T08:04:30;100234.06;;;10.98;100.00
59170;BME280;52474;52.236;5.114;2023-03-23T08:07:14;100249.22;;;11.15;100.00
59170;BME280;52474;52.236;5.114;2023-03-23T08:10:05;100254.50;;;11.51;100.00
59170;BME280;52474;52.236;5.114;2023-03-23T08:12:57;100250.47;;;12.18;100.00
59170;BME280;52474;52.236;5.114;2023-03-23T08:15:54;100235.25;;;12.02;100.00
59170;BME280;52474;52.236;5.114;2023-03-23T08:18:56;100231.28;;;12.67;100.00
59170;BME280;52474;52.236;5.114;2023-03-23T08:21:28;100250.84;;;12.58;100.00
59170;BME280;52474;52.236;5.114;2023-03-23T08:24:16;100262.97;;;12.08;100.00
59170;BME280;52474;52.236;5.114;2023-03-23T08:27:03;100257.56;;;11.92;100.00
59170;BME280;52474;52.236;5.114;2023-03-23T08:30:07;100246.69;;;12.03;100.00
59170;BME280;52474;52.236;5.114;2023-03-23T08:32:52;100256.63;;;12.27;100.00
59170;BME280;52474;52.236;5.114;2023-03-23T08:35:36;100251.75;;;12.40;100.00
59170;BME280;52474;52.236;5.114;2023-03-23T08:38:06;100263.44;;;12.90;100.00
59170;BME280;52474;52.236;5.114;2023-03-23T08:41:07;100247.59;;;17.06;100.00
59170;BME280;52474;52.236;5.114;2023-03-23T08:43:48;100250.72;;;19.48;100.00
59170;BME280;52474;52.236;5.114;2023-03-23T08:46:31;100250.06;;;18.78;100.00
59170;BME280;52474;52.236;5.114;2023-03-23T08:49:20;100255.19;;;17.67;100.00
59170;BME280;52474;52.236;5.114;2023-03-23T08:51:49;100262.81;;;15.70;100.00
59170;BME280;52474;52.236;5.114;2023-03-23T08:54:34;100273.84;;;16.28;100.00
59170;BME280;52474;52.236;5.114;2023-03-23T08:57:29;100267.25;;;14.36;100.00
59170;BME280;52474;52.236;5.114;2023-03-23T09:00:20;100262.13;;;18.95;100.00
59170;BME280;52474;52.236;5.114;2023-03-23T09:02:59;100262.56;;;15.80;100.00
59170;BME280;52474;52.236;5.114;2023-03-23T09:05:38;100259.66;;;14.81;100.00
59170;BME280;52474;52.236;5.114;2023-03-23T09:08:40;100276.44;;;14.26;100.00
59170;BME280;52474;52.236;5.114;2023-03-23T09:11:08;100274.34;;;14.69;100.00
59170;BME280;52474;52.236;5.114;2023-03-23T09:13:35;100279.88;;;14.51;100.00
59170;BME280;52474;52.236;5.114;2023-03-23T09:16:05;100250.78;;;15.51;100.00
59170;BME280;52474;52.236;5.114;2023-03-23T09:18:31;100290.09;;;14.23;100.00
59170;BME280;52474;52.236;5.114;2023-03-23T09:20:58;100278.66;;;15.17;100.00
59170;BME280;52474;52.236;5.114;2023-03-23T09:23:25;100285.53;;;14.39;100.00
59170;BME280;52474;52.236;5.114;2023-03-23T09:25:52;100277.44;;;14.16;100.00
59170;BME280;52474;52.236;5.114;2023-03-23T09:28:18;100283.28;;;13.71;100.00
59170;BME280;52474;52.236;5.114;2023-03-23T09:30:45;100265.09;;;12.91;100.00
59170;BME280;52474;52.236;5.114;2023-03-23T09:33:15;100283.34;;;13.28;100.00
59170;BME280;52474;52.236;5.114;2023-03-23T09:35:41;100288.50;;;16.17;100.00
59170;BME280;52474;52.236;5.114;2023-03-23T09:38:09;100285.53;;;15.89;100.00
59170;BME280;52474;52.236;5.114;2023-03-23T09:40:56;100291.22;;;13.63;100.00
59170;BME280;52474;52.236;5.114;2023-03-23T09:43:46;100281.81;;;17.32;100.00
59170;BME280;52474;52.236;5.114;2023-03-23T09:46:38;100283.78;;;18.59;100.00
59170;BME280;52474;52.236;5.114;2023-03-23T09:49:11;100270.63;;;20.20;100.00
59170;BME280;52474;52.236;5.114;2023-03-23T09:51:54;100283.44;;;19.78;100.00
59170;BME280;52474;52.236;5.114;2023-03-23T09:56:51;100269.72;;;14.63;100.00
59170;BME280;52474;52.236;5.114;2023-03-23T09:59:22;100299.97;;;16.03;100.00
59170;BME280;52474;52.236;5.114;2023-03-23T10:01:58;100293.97;;;20.66;100.00
59170;BME280;52474;52.236;5.114;2023-03-23T10:04:28;100310.56;;;24.25;100.00
59170;BME280;52474;52.236;5.114;2023-03-23T10:07:05;100308.69;;;21.22;100.00
59170;BME280;52474;52.236;5.114;2023-03-23T10:09:32;100308.22;;;17.93;100.00
59170;BME280;52474;52.236;5.114;2023-03-23T10:12:21;100304.81;;;19.38;100.00
59170;BME280;52474;52.236;5.114;2023-03-23T10:17:29;100297.19;;;22.35;100.00
59170;BME280;52474;52.236;5.114;2023-03-23T10:23:09;100316.03;;;13.71;100.00
59170;BME280;52474;52.236;5.114;2023-03-23T10:25:46;100324.50;;;13.67;100.00
59170;BME280;52474;52.236;5.114;2023-03-23T10:28:19;100318.22;;;18.90;100.00
59170;BME280;52474;52.236;5.114;2023-03-23T10:30:55;100320.03;;;14.41;100.00
59170;BME280;52474;52.236;5.114;2023-03-23T10:33:31;100313.88;;;13.91;100.00
59170;BME280;52474;52.236;5.114;2023-03-23T10:38:38;100315.91;;;21.21;100.00
59170;BME280;52474;52.236;5.114;2023-03-23T10:41:16;100318.03;;;16.68;100.00
59170;BME280;52474;52.236;5.114;2023-03-23T10:43:46;100327.31;;;14.80;100.00
59170;BME280;52474;52.236;5.114;2023-03-23T10:48:54;100329.69;;;13.26;100.00
59170;BME280;52474;52.236;5.114;2023-03-23T10:51:28;100315.94;;;18.24;100.00
59170;BME280;52474;52.236;5.114;2023-03-23T10:53:59;100320.06;;;21.69;100.00
59170;BME280;52474;52.236;5.114;2023-03-23T10:56:29;100331.91;;;18.67;100.00
59170;BME280;52474;52.236;5.114;2023-03-23T10:59:29;100342.31;;;14.48;100.00
59170;BME280;52474;52.236;5.114;2023-03-23T11:02:00;100347.00;;;19.44;100.00
59170;BME280;52474;52.236;5.114;2023-03-23T11:04:29;100335.41;;;22.94;100.00
59170;BME280;52474;52.236;5.114;2023-03-23T11:07:00;100337.84;;;18.62;100.00
59170;BME280;52474;52.236;5.114;2023-03-23T11:09:40;100329.13;;;19.98;100.00
59170;BME280;52474;52.236;5.114;2023-03-23T11:12:20;100338.47;;;20.35;100.00
59170;BME280;52474;52.236;5.114;2023-03-23T11:14:46;100341.78;;;20.71;100.00
59170;BME280;52474;52.236;5.114;2023-03-23T11:17:26;100333.38;;;23.75;100.00
59170;BME280;52474;52.236;5.114;2023-03-23T11:19:53;100333.06;;;21.34;100.00
59170;BME280;52474;52.236;5.114;2023-03-23T11:22:26;100336.44;;;18.66;100.00
59170;BME280;52474;52.236;5.114;2023-03-23T11:24:55;100334.59;;;14.94;100.00
59170;BME280;52474;52.236;5.114;2023-03-23T11:27:23;100339.13;;;15.25;100.00
59170;BME280;52474;52.236;5.114;2023-03-23T11:29:54;100333.38;;;15.99;100.00
59170;BME280;52474;52.236;5.114;2023-03-23T11:32:27;100331.22;;;16.70;100.00
59170;BME280;52474;52.236;5.114;2023-03-23T11:34:59;100332.63;;;18.82;100.00
59170;BME280;52474;52.236;5.114;2023-03-23T11:37:34;100343.44;;;20.19;100.00
59170;BME280;52474;52.236;5.114;2023-03-23T11:40:16;100339.84;;;22.20;100.00
59170;BME280;52474;52.236;5.114;2023-03-23T11:45:25;100323.56;;;22.77;100.00
59170;BME280;52474;52.236;5.114;2023-03-23T11:51:02;100332.72;;;16.87;100.00
59170;BME280;52474;52.236;5.114;2023-03-23T11:54:04;100332.91;;;18.10;100.00
59170;BME280;52474;52.236;5.114;2023-03-23T11:56:37;100319.50;;;15.80;100.00
59170;BME280;52474;52.236;5.114;2023-03-23T11:59:12;100323.44;;;15.30;100.00
59170;BME280;52474;52.236;5.114;2023-03-23T12:17:35;100342.34;;;14.40;100.00
59170;BME280;52474;52.236;5.114;2023-03-23T12:20:21;100336.78;;;14.82;100.00
59170;BME280;52474;52.236;5.114;2023-03-23T12:23:13;100324.19;;;14.60;100.00
59170;BME280;52474;52.236;5.114;2023-03-23T12:28:32;100335.69;;;14.03;100.00
59170;BME280;52474;52.236;5.114;2023-03-23T12:31:11;100325.69;;;14.30;100.00
59170;BME280;52474;52.236;5.114;2023-03-23T12:33:59;100307.06;;;14.05;100.00
59170;BME280;52474;52.236;5.114;2023-03-23T12:37:01;100322.06;;;17.96;100.00
59170;BME280;52474;52.236;5.114;2023-03-23T12:44:58;100319.19;;;19.79;100.00
59170;BME280;52474;52.236;5.114;2023-03-23T12:47:46;100319.53;;;17.15;100.00
59170;BME280;52474;52.236;5.114;2023-03-23T12:50:21;100320.75;;;15.61;100.00
59170;BME280;52474;52.236;5.114;2023-03-23T12:56:02;100320.63;;;14.76;100.00
59170;BME280;52474;52.236;5.114;2023-03-23T12:58:38;100320.38;;;14.38;100.00
59170;BME280;52474;52.236;5.114;2023-03-23T13:01:10;100303.22;;;14.24;100.00
59170;BME280;52474;52.236;5.114;2023-03-23T13:06:26;100311.72;;;15.94;100.00
59170;BME280;52474;52.236;5.114;2023-03-23T13:12:13;100326.16;;;15.22;100.00
59170;BME280;52474;52.236;5.114;2023-03-23T13:15:02;100347.16;;;15.17;100.00
59170;BME280;52474;52.236;5.114;2023-03-23T13:25:39;100329.53;;;17.43;100.00
59170;BME280;52474;52.236;5.114;2023-03-23T13:28:20;100311.84;;;16.68;100.00
59170;BME280;52474;52.236;5.114;2023-03-23T13:31:11;100316.22;;;15.93;100.00
59170;BME280;52474;52.236;5.114;2023-03-23T13:33:46;100328.59;;;15.32;100.00
59170;BME280;52474;52.236;5.114;2023-03-23T13:36:25;100329.03;;;15.12;100.00
59170;BME280;52474;52.236;5.114;2023-03-23T13:38:56;100329.63;;;15.22;100.00
59170;BME280;52474;52.236;5.114;2023-03-23T13:41:23;100331.28;;;15.63;100.00
59170;BME280;52474;52.236;5.114;2023-03-23T13:43:51;100318.09;;;15.61;100.00
59170;BME280;52474;52.236;5.114;2023-03-23T14:00:38;100333.78;;;15.25;100.00
59170;BME280;52474;52.236;5.114;2023-03-23T14:05:44;100337.66;;;16.08;100.00
59170;BME280;52474;52.236;5.114;2023-03-23T14:08:25;100328.41;;;15.96;100.00
59170;BME280;52474;52.236;5.114;2023-03-23T14:11:11;100297.63;;;16.23;100.00
59170;BME280;52474;52.236;5.114;2023-03-23T14:16:41;100306.94;;;16.04;100.00
59170;BME280;52474;52.236;5.114;2023-03-23T14:19:33;100308.50;;;16.36;100.00
59170;BME280;52474;52.236;5.114;2023-03-23T14:22:02;100313.31;;;17.15;100.00
59170;BME280;52474;52.236;5.114;2023-03-23T14:24:33;100317.94;;;16.62;100.00
59170;BME280;52474;52.236;5.114;2023-03-23T14:27:13;100324.94;;;16.10;100.00
59170;BME280;52474;52.236;5.114;2023-03-23T14:29:40;100321.06;;;15.66;100.00
59170;BME280;52474;52.236;5.114;2023-03-23T14:32:15;100311.25;;;15.28;100.00
59170;BME280;52474;52.236;5.114;2023-03-23T14:34:47;100310.19;;;15.14;100.00
59170;BME280;52474;52.236;5.114;2023-03-23T14:37:15;100308.28;;;15.22;100.00
59170;BME280;52474;52.236;5.114;2023-03-23T14:39:45;100272.22;;;15.58;100.00
59170;BME280;52474;52.236;5.114;2023-03-23T14:42:15;100263.09;;;15.98;100.00
59170;BME280;52474;52.236;5.114;2023-03-23T14:44:43;100273.16;;;16.11;100.00
59170;BME280;52474;52.236;5.114;2023-03-23T14:47:25;100259.72;;;16.19;100.00
59170;BME280;52474;52.236;5.114;2023-03-23T14:49:57;100254.06;;;15.99;100.00
59170;BME280;52474;52.236;5.114;2023-03-23T14:52:29;100261.09;;;15.54;100.00
59170;BME280;52474;52.236;5.114;2023-03-23T14:55:14;100259.81;;;15.19;100.00
59170;BME280;52474;52.236;5.114;2023-03-23T14:57:41;100261.38;;;15.59;100.00